TimeCST,TemperatureF,Dew PointF,Humidity,Sea Level PressureIn,VisibilityMPH,Wind Direction,Wind SpeedMPH,Gust SpeedMPH,PrecipitationIn,Events,Conditions,WindDirDegrees,DateUTC
12:15 AM,26.6,26.6,100,30.42,5.0,Calm,Calm,-,0.00,,Clear,0,2012-12-30 06:15:00
12:35 AM,24.8,24.8,100,30.42,5.0,Calm,Calm,-,0.00,,Clear,0,2012-12-30 06:35:00
12:55 AM,23.0,23.0,100,30.42,4.0,Calm,Calm,-,0.00,,Clear,0,2012-12-30 06:55:00
1:15 AM,23.0,23.0,100,30.42,4.0,Calm,Calm,-,0.00,,Clear,0,2012-12-30 07:15:00
1:35 AM,24.8,24.8,100,30.42,4.0,Calm,Calm,-,0.00,,Clear,0,2012-12-30 07:35:00
1:55 AM,23.0,23.0,100,30.43,5.0,Calm,Calm,-,0.00,,Clear,0,2012-12-30 07:55:00
2:15 AM,24.8,24.8,100,30.45,5.0,Calm,Calm,-,0.00,,Clear,0,2012-12-30 08:15:00
2:35 AM,-9999,-9999,N/A,30.45,5.0,Calm,Calm,-,0.00,,Clear,0,2012-12-30 08:35:00
2:55 AM,23.0,23.0,100,30.46,3.0,Calm,Calm,-,0.00,,Clear,0,2012-12-30 08:55:00
3:15 AM,23.0,23.0,100,30.46,3.0,Calm,Calm,-,0.00,,Clear,0,2012-12-30 09:15:00
3:35 AM,21.2,21.2,100,30.48,4.0,Calm,Calm,-,0.00,,Clear,0,2012-12-30 09:35:00
4:15 AM,23.0,23.0,100,30.45,5.0,Calm,Calm,-,0.00,,Clear,0,2012-12-30 10:15:00
4:35 AM,23.0,23.0,100,30.46,5.0,Calm,Calm,-,0.00,,Clear,0,2012-12-30 10:35:00
4:55 AM,23.0,23.0,100,30.45,5.0,Calm,Calm,-,0.00,,Clear,0,2012-12-30 10:55:00
5:15 AM,23.0,23.0,100,30.46,5.0,Calm,Calm,-,0.00,,Clear,0,2012-12-30 11:15:00
5:35 AM,21.2,21.2,100,30.48,5.0,Calm,Calm,-,0.00,,Clear,0,2012-12-30 11:35:00
5:55 AM,23.0,23.0,100,30.49,3.0,Calm,Calm,-,0.00,,Clear,0,2012-12-30 11:55:00
7:30 AM,21.2,21.2,100,30.52,5.0,Calm,Calm,-,N/A,,Partly Cloudy,0,2012-12-30 13:30:00
8:50 AM,28.4,28.4,100,30.53,6.0,Calm,Calm,-,N/A,,Partly Cloudy,0,2012-12-30 14:50:00
9:50 AM,32.0,32.0,100,30.53,8.0,Calm,Calm,-,N/A,,Scattered Clouds,0,2012-12-30 15:50:00
10:50 AM,33.8,26.6,75,30.52,10.0,Calm,Calm,-,N/A,,Scattered Clouds,0,2012-12-30 16:50:00
11:50 AM,35.6,28.4,75,30.49,10.0,Calm,Calm,-,N/A,,Mostly Cloudy,0,2012-12-30 17:50:00
12:50 PM,39.2,28.4,65,30.47,10.0,SSE,3.5,-,N/A,,Mostly Cloudy,150,2012-12-30 18:50:00
1:50 PM,39.2,28.4,65,30.46,10.0,Calm,Calm,-,N/A,,Mostly Cloudy,0,2012-12-30 19:50:00
2:50 PM,39.2,28.4,65,30.44,10.0,Calm,Calm,-,N/A,,Mostly Cloudy,0,2012-12-30 20:50:00
3:50 PM,39.2,28.4,65,30.44,10.0,Calm,Calm,-,N/A,,Mostly Cloudy,0,2012-12-30 21:50:00
4:55 PM,37.4,28.4,70,30.43,10.0,Calm,Calm,-,N/A,,Mostly Cloudy,0,2012-12-30 22:55:00
5:50 PM,35.6,28.4,75,30.42,-9999.0,Calm,Calm,-,N/A,,Mostly Cloudy,0,2012-12-30 23:50:00
6:55 PM,35.6,28.4,75,30.41,10.0,Calm,Calm,-,N/A,,Mostly Cloudy,0,2012-12-31 00:55:00
7:50 PM,32.0,30.2,93,30.39,10.0,Calm,Calm,-,N/A,,Mostly Cloudy,0,2012-12-31 01:50:00
8:15 PM,32.0,30.2,93,30.40,10.0,Calm,Calm,-,0.00,,Clear,0,2012-12-31 02:15:00
8:35 PM,32.0,30.2,93,30.39,10.0,Calm,Calm,-,0.00,,Clear,0,2012-12-31 02:35:00
8:55 PM,32.0,30.2,93,30.39,10.0,Calm,Calm,-,0.00,,Clear,0,2012-12-31 02:55:00
9:15 PM,32.0,30.2,93,30.39,8.0,Calm,Calm,-,0.00,,Clear,0,2012-12-31 03:15:00
9:35 PM,32.0,28.4,87,30.38,8.0,Calm,Calm,-,0.00,,Clear,0,2012-12-31 03:35:00
9:55 PM,32.0,30.2,93,30.39,9.0,Calm,Calm,-,N/A,,Clear,0,2012-12-31 03:55:00
10:15 PM,32.0,28.4,87,30.38,10.0,Calm,Calm,-,0.00,,Clear,0,2012-12-31 04:15:00
10:35 PM,32.0,28.4,87,30.37,9.0,Calm,Calm,-,0.00,,Clear,0,2012-12-31 04:35:00
10:55 PM,32.0,30.2,93,30.36,7.0,SE,5.8,-,0.00,,Clear,130,2012-12-31 04:55:00
11:15 PM,32.0,28.4,87,30.35,8.0,SE,6.9,-,0.00,,Clear,140,2012-12-31 05:15:00
11:35 PM,32.0,28.4,87,30.35,8.0,SSE,6.9,-,0.00,,Clear,150,2012-12-31 05:35:00
11:55 PM,33.8,28.4,81,30.34,10.0,SSE,5.8,-,0.00,,Clear,160,2012-12-31 05:55:00